Time;durP1;ratioP1;P1;durP2;ratioP2;P2;SDS_P1;SDS_P2;PMS_P1;PMS_P2;Temp;Humidity;BMP_temperature;BMP_pressure;BME280_temperature;BME280_humidity;BME280_pressure;Samples;Min_cycle;Max_cycle;Signal;HPM_P1;HPM_P2
2021/05/15 00:01:12;;;;;;;32.43;17.87;;;8.00;98.30;;;;;;5141653;23;20417;-83
2021/05/15 00:03:13;;;;;;;34.37;18.07;;;8.10;98.30;;;;;;5142249;23;20388;-83
2021/05/15 00:05:15;;;;;;;32.47;16.70;;;8.10;98.30;;;;;;5143376;23;20739;-83
2021/05/15 00:07:17;;;;;;;38.80;20.07;;;8.10;98.30;;;;;;5152625;23;20392;-83
2021/05/15 00:09:18;;;;;;;35.67;20.70;;;8.10;98.30;;;;;;5152375;23;20484;-83
2021/05/15 00:11:19;;;;;;;34.77;20.40;;;8.20;98.30;;;;;;5144614;23;20489;-83
2021/05/15 00:13:20;;;;;;;31.33;16.10;;;8.20;98.30;;;;;;5143383;23;20416;-83
2021/05/15 00:15:22;;;;;;;36.50;16.47;;;8.20;98.30;;;;;;5143027;23;20491;-83
2021/05/15 00:17:23;;;;;;;33.40;16.40;;;8.20;98.30;;;;;;5144220;23;20416;-83
2021/05/15 00:19:24;;;;;;;36.83;18.93;;;8.30;98.30;;;;;;5144099;23;20835;-82
2021/05/15 00:21:27;;;;;;;31.30;15.13;;;8.30;98.30;;;;;;5152990;23;20740;-82
2021/05/15 00:23:28;;;;;;;37.60;16.50;;;8.30;98.30;;;;;;5143926;23;20717;-82
2021/05/15 00:25:29;;;;;;;29.90;16.13;;;8.20;98.30;;;;;;5143070;23;20417;-82
2021/05/15 00:27:30;;;;;;;33.40;16.93;;;8.30;98.30;;;;;;5142878;23;20812;-82
2021/05/15 00:29:32;;;;;;;33.03;18.50;;;8.30;98.30;;;;;;5143787;23;20387;-82
2021/05/15 00:31:33;;;;;;;37.63;17.40;;;8.30;98.30;;;;;;5142992;23;20433;-82
2021/05/15 00:33:34;;;;;;;31.00;15.97;;;8.40;98.30;;;;;;5143603;23;20882;-81
2021/05/15 00:35:36;;;;;;;35.70;16.90;;;8.40;98.30;;;;;;5150520;23;20417;-82
2021/05/15 00:37:38;;;;;;;32.33;15.83;;;8.50;98.30;;;;;;5151277;23;20477;-82
2021/05/15 00:39:39;;;;;;;34.57;16.53;;;8.40;98.30;;;;;;5141876;23;20918;-82
2021/05/15 00:41:40;;;;;;;28.80;14.27;;;8.40;98.30;;;;;;5142301;23;20437;-82
2021/05/15 00:43:56;;;;;;;28.00;19.20;;;8.40;98.30;;;;;;5144794;23;20467;-82
2021/05/15 00:45:58;;;;;;;25.47;14.17;;;8.40;98.30;;;;;;5142660;23;20381;-83
2021/05/15 00:47:59;;;;;;;28.77;15.80;;;8.30;98.30;;;;;;5149942;23;20460;-82
2021/05/15 00:50:01;;;;;;;25.07;13.97;;;8.40;98.30;;;;;;5141317;23;20391;-82
2021/05/15 00:52:02;;;;;;;25.73;13.80;;;8.40;98.30;;;;;;5141276;23;21181;-82
2021/05/15 00:54:05;;;;;;;22.67;12.60;;;8.40;98.30;;;;;;5140586;23;20424;-81
2021/05/15 00:56:07;;;;;;;27.50;15.43;;;8.40;98.30;;;;;;5141888;23;20462;-82
2021/05/15 00:58:08;;;;;;;30.30;14.80;;;8.40;98.30;;;;;;5141579;23;20395;-81
2021/05/15 01:00:12;;;;;;;27.10;13.20;;;8.50;98.30;;;;;;5149867;23;20418;-82
2021/05/15 01:02:13;;;;;;;25.03;14.53;;;8.60;98.30;;;;;;5149565;23;20416;-82
2021/05/15 01:04:15;;;;;;;26.50;16.23;;;8.60;98.30;;;;;;5148878;23;20443;-82
2021/05/15 01:06:16;;;;;;;26.70;13.20;;;8.70;98.30;;;;;;5141008;23;20513;-82
2021/05/15 01:08:18;;;;;;;26.83;14.07;;;8.80;98.30;;;;;;5149003;23;20398;-81
2021/05/15 01:10:20;;;;;;;25.50;13.70;;;8.80;98.30;;;;;;5140867;23;20831;-82
2021/05/15 01:12:22;;;;;;;25.57;13.60;;;8.80;98.30;;;;;;5141210;23;20432;-82
2021/05/15 01:14:23;;;;;;;22.13;13.20;;;8.80;98.30;;;;;;5149380;23;21060;-82
2021/05/15 01:16:25;;;;;;;25.43;15.20;;;8.80;98.30;;;;;;5141318;23;20891;-83
2021/05/15 01:18:26;;;;;;;21.70;12.90;;;8.90;98.30;;;;;;5142425;23;20424;-82
2021/05/15 01:20:31;;;;;;;20.77;12.60;;;8.90;98.30;;;;;;5150297;23;20409;-83
2021/05/15 01:22:33;;;;;;;24.87;13.17;;;8.80;98.30;;;;;;5141537;23;20821;-83
2021/05/15 01:24:37;;;;;;;28.27;14.10;;;8.80;98.30;;;;;;5141266;23;20453;-82
2021/05/15 01:26:38;;;;;;;28.57;14.20;;;8.80;98.30;;;;;;5141699;23;20416;-82
2021/05/15 01:28:40;;;;;;;29.53;14.70;;;8.80;98.30;;;;;;5150517;23;20499;-83
2021/05/15 01:30:41;;;;;;;25.03;13.70;;;8.80;98.30;;;;;;5142297;23;20409;-82
2021/05/15 01:32:45;;;;;;;25.97;13.50;;;8.80;98.30;;;;;;5141358;23;20488;-82
2021/05/15 01:34:46;;;;;;;24.80;12.70;;;8.80;98.30;;;;;;5149078;23;20416;-83
2021/05/15 01:36:47;;;;;;;26.30;13.80;;;8.80;98.30;;;;;;5141891;23;20421;-82
2021/05/15 01:38:50;;;;;;;19.67;13.03;;;8.80;98.30;;;;;;5150789;23;20957;-82
2021/05/15 01:40:51;;;;;;;24.70;12.60;;;8.80;98.30;;;;;;5143274;23;20448;-83
2021/05/15 01:42:52;;;;;;;22.90;14.00;;;8.80;98.30;;;;;;5143472;23;20524;-83
2021/05/15 01:44:54;;;;;;;25.17;13.97;;;8.80;98.30;;;;;;5151784;23;21157;-82
2021/05/15 01:46:55;;;;;;;27.17;13.50;;;8.80;98.30;;;;;;5144148;23;20420;-82
2021/05/15 01:48:56;;;;;;;24.13;13.00;;;8.80;98.30;;;;;;5140571;23;20421;-82
2021/05/15 01:50:59;;;;;;;24.53;13.83;;;8.80;98.30;;;;;;5141210;23;20664;-82
2021/05/15 01:53:00;;;;;;;24.00;13.10;;;8.70;98.30;;;;;;5141603;23;20483;-82
2021/05/15 01:55:08;;;;;;;31.57;14.80;;;8.70;98.30;;;;;;5148848;23;20412;-82
2021/05/15 01:57:10;;;;;;;23.30;14.37;;;8.70;98.30;;;;;;5149171;23;20408;-82
2021/05/15 01:59:11;;;;;;;23.47;14.13;;;8.70;98.30;;;;;;5141287;23;20411;-82
2021/05/15 02:01:13;;;;;;;25.00;15.07;;;8.70;98.30;;;;;;5140081;23;20415;-82
2021/05/15 02:03:14;;;;;;;24.03;15.00;;;8.70;98.30;;;;;;5140337;23;20410;-81
2021/05/15 02:05:15;;;;;;;26.93;13.67;;;8.70;98.30;;;;;;5139726;23;20451;-82
2021/05/15 02:07:16;;;;;;;25.70;14.30;;;8.70;98.30;;;;;;5147898;23;20739;-82
2021/05/15 02:09:22;;;;;;;30.93;15.07;;;8.80;98.30;;;;;;5148406;23;20483;-82
2021/05/15 02:11:24;;;;;;;31.37;14.67;;;8.80;98.30;;;;;;5148099;23;20440;-82
2021/05/15 02:13:27;;;;;;;21.67;13.87;;;8.80;98.30;;;;;;5139712;23;20423;-82
2021/05/15 02:15:29;;;;;;;24.97;14.13;;;8.80;98.30;;;;;;5139098;23;20422;-82
2021/05/15 02:17:30;;;;;;;23.07;13.63;;;8.80;98.30;;;;;;5148327;23;20413;-81
2021/05/15 02:19:31;;;;;;;25.47;12.70;;;8.70;98.30;;;;;;5140070;23;20767;-82
2021/05/15 02:21:33;;;;;;;24.90;12.63;;;8.70;98.30;;;;;;5139676;23;20961;-82
2021/05/15 02:23:35;;;;;;;29.80;14.03;;;8.70;98.30;;;;;;5148602;23;20809;-82
2021/05/15 02:25:37;;;;;;;24.73;13.00;;;8.70;98.30;;;;;;5139076;23;20453;-81
2021/05/15 02:27:39;;;;;;;26.67;12.57;;;8.60;98.30;;;;;;5147174;23;20425;-82
2021/05/15 02:29:40;;;;;;;20.13;12.40;;;8.60;98.30;;;;;;5147030;23;20413;-82
2021/05/15 02:31:41;;;;;;;26.13;14.77;;;8.60;98.30;;;;;;5140423;23;20742;-82
2021/05/15 02:33:43;;;;;;;26.83;13.43;;;8.60;98.30;;;;;;5141024;23;20818;-82
2021/05/15 02:35:44;;;;;;;24.63;12.73;;;8.60;98.30;;;;;;5141172;23;20417;-82
2021/05/15 02:37:47;;;;;;;25.83;14.23;;;8.60;98.30;;;;;;5141812;23;20445;-82
2021/05/15 02:39:48;;;;;;;23.23;13.10;;;8.60;98.30;;;;;;5141766;23;20409;-82
2021/05/15 02:41:49;;;;;;;26.40;12.20;;;8.70;98.30;;;;;;5142032;23;20504;-83
2021/05/15 02:43:51;;;;;;;25.07;13.00;;;8.70;98.30;;;;;;5147920;23;20555;-81
2021/05/15 02:45:53;;;;;;;24.10;12.37;;;8.70;98.30;;;;;;5139828;23;20417;-82
2021/05/15 02:47:54;;;;;;;25.80;13.17;;;8.60;98.30;;;;;;5141381;23;20412;-82
2021/05/15 02:49:56;;;;;;;23.57;13.30;;;8.60;98.30;;;;;;5149096;23;20391;-82
2021/05/15 02:51:57;;;;;;;21.93;13.00;;;8.60;98.30;;;;;;5148459;23;20437;-82
2021/05/15 02:54:23;;;;;;;32.73;16.93;;;8.60;98.30;;;;;;5141115;23;20427;-82
2021/05/15 02:56:24;;;;;;;28.60;15.50;;;8.70;98.30;;;;;;5148827;23;20401;-82
2021/05/15 02:58:26;;;;;;;25.80;17.17;;;8.60;98.30;;;;;;5144368;23;20392;-82
2021/05/15 03:00:28;;;;;;;24.17;13.47;;;8.60;98.30;;;;;;5140952;23;20499;-82
2021/05/15 03:02:29;;;;;;;21.60;14.63;;;8.70;98.30;;;;;;5142593;23;20437;-82
2021/05/15 03:04:31;;;;;;;26.57;13.03;;;8.70;98.30;;;;;;5148601;23;20813;-83
2021/05/15 03:06:32;;;;;;;27.43;12.73;;;8.70;98.30;;;;;;5149666;23;20926;-83
2021/05/15 03:08:33;;;;;;;25.07;13.13;;;8.70;98.30;;;;;;5142536;23;21073;-82
2021/05/15 03:10:35;;;;;;;26.10;13.67;;;8.70;98.30;;;;;;5149663;23;20421;-83
2021/05/15 03:12:36;;;;;;;29.00;14.97;;;8.70;98.30;;;;;;5141598;23;20766;-82
2021/05/15 03:14:38;;;;;;;24.20;13.50;;;8.70;98.30;;;;;;5140795;23;20418;-83
2021/05/15 03:16:40;;;;;;;23.20;13.87;;;8.70;98.30;;;;;;5141292;23;20419;-82
2021/05/15 03:18:41;;;;;;;38.13;20.27;;;8.80;98.30;;;;;;5140996;23;20417;-82
2021/05/15 03:20:42;;;;;;;25.23;15.60;;;8.80;98.30;;;;;;5148526;23;20409;-82
2021/05/15 03:22:44;;;;;;;24.70;14.40;;;8.80;98.30;;;;;;5140775;23;20433;-82
2021/05/15 03:24:46;;;;;;;26.07;15.03;;;8.80;98.30;;;;;;5139949;23;20476;-82
2021/05/15 03:26:47;;;;;;;24.23;14.37;;;8.80;98.30;;;;;;5140923;23;20417;-82
2021/05/15 03:28:48;;;;;;;22.70;12.93;;;8.80;98.30;;;;;;5140943;23;20446;-82
2021/05/15 03:30:50;;;;;;;21.73;13.63;;;8.70;98.30;;;;;;5141620;23;20440;-82
2021/05/15 03:32:52;;;;;;;24.03;13.40;;;8.80;98.30;;;;;;5140833;23;20953;-82
2021/05/15 03:34:55;;;;;;;23.40;14.40;;;8.80;98.30;;;;;;5140177;23;20602;-82
2021/05/15 03:36:58;;;;;;;23.30;15.50;;;8.80;98.30;;;;;;5137049;23;20384;-82
2021/05/15 03:38:59;;;;;;;22.77;13.17;;;8.80;98.30;;;;;;5148787;23;20395;-82
2021/05/15 03:41:01;;;;;;;24.03;14.73;;;8.80;98.30;;;;;;5149108;23;20777;-82
2021/05/15 03:43:03;;;;;;;24.63;12.90;;;8.90;98.30;;;;;;5140541;23;20576;-82
2021/05/15 03:45:06;;;;;;;23.97;13.60;;;8.90;98.30;;;;;;5139837;23;20431;-82
2021/05/15 03:47:08;;;;;;;23.23;14.47;;;8.90;98.30;;;;;;5142265;23;20821;-82
2021/05/15 03:49:10;;;;;;;25.70;14.43;;;8.90;98.30;;;;;;5150569;23;20971;-82
2021/05/15 03:51:11;;;;;;;23.80;14.10;;;8.90;98.30;;;;;;5141991;23;20439;-82
2021/05/15 03:53:13;;;;;;;22.80;14.13;;;8.90;98.30;;;;;;5143435;23;20746;-82
2021/05/15 03:55:14;;;;;;;20.83;13.57;;;8.80;98.30;;;;;;5149478;23;20940;-82
2021/05/15 03:57:15;;;;;;;26.80;13.03;;;8.80;98.30;;;;;;5141603;23;20775;-82
2021/05/15 03:59:16;;;;;;;24.13;13.73;;;8.90;98.30;;;;;;5141658;23;20467;-82
2021/05/15 04:01:18;;;;;;;26.77;14.47;;;8.90;98.30;;;;;;5149988;23;20739;-83
2021/05/15 04:03:19;;;;;;;23.40;13.97;;;8.90;98.30;;;;;;5150392;23;20524;-83
2021/05/15 04:05:21;;;;;;;20.20;12.23;;;8.90;98.30;;;;;;5140915;23;20476;-83
2021/05/15 04:07:23;;;;;;;24.50;14.07;;;8.90;98.30;;;;;;5141857;23;20469;-83
2021/05/15 04:09:24;;;;;;;22.17;13.00;;;8.90;98.30;;;;;;5143288;23;20930;-83
2021/05/15 04:11:34;;;;;;;22.13;12.73;;;9.00;98.30;;;;;;5142718;23;20806;-83
2021/05/15 04:13:42;;;;;;;29.60;13.63;;;9.10;98.30;;;;;;5151146;23;20477;-82
2021/05/15 04:15:49;;;;;;;20.77;13.60;;;9.10;98.30;;;;;;5140896;23;20855;-82
2021/05/15 04:17:50;;;;;;;24.40;14.77;;;9.00;98.30;;;;;;5150053;23;20731;-82
2021/05/15 04:19:51;;;;;;;27.50;14.33;;;9.00;98.30;;;;;;5150417;23;20471;-82
2021/05/15 04:21:54;;;;;;;22.30;13.50;;;9.00;98.30;;;;;;5141489;23;20495;-83
2021/05/15 04:23:55;;;;;;;24.23;13.67;;;9.00;98.30;;;;;;5140530;23;20417;-82
2021/05/15 04:25:56;;;;;;;20.80;13.10;;;9.00;98.30;;;;;;5142688;23;20445;-82
2021/05/15 04:27:58;;;;;;;23.40;14.33;;;8.90;98.30;;;;;;5151675;23;20504;-82
2021/05/15 04:29:59;;;;;;;25.53;13.90;;;8.90;98.30;;;;;;5143681;23;20416;-81
2021/05/15 04:32:00;;;;;;;24.30;15.13;;;9.00;98.30;;;;;;5141611;23;20849;-82
2021/05/15 04:34:02;;;;;;;26.13;14.10;;;9.00;98.30;;;;;;5141155;23;20445;-82
2021/05/15 04:36:04;;;;;;;24.47;14.93;;;9.00;98.30;;;;;;5142313;23;20412;-82
2021/05/15 04:38:07;;;;;;;24.13;14.80;;;9.00;98.30;;;;;;5142199;23;20451;-82
2021/05/15 04:40:09;;;;;;;25.00;14.27;;;9.00;98.30;;;;;;5142765;23;20413;-83
2021/05/15 04:42:10;;;;;;;23.87;14.47;;;8.90;98.30;;;;;;5143321;23;20433;-83
2021/05/15 04:44:12;;;;;;;25.63;15.50;;;8.90;98.30;;;;;;5142053;23;20495;-83
2021/05/15 04:46:13;;;;;;;28.90;15.50;;;8.90;98.30;;;;;;5150323;23;20395;-82
2021/05/15 04:48:14;;;;;;;27.50;15.30;;;9.00;98.30;;;;;;5150534;23;20701;-83
2021/05/15 04:50:16;;;;;;;23.90;14.03;;;9.10;98.30;;;;;;5150746;23;20408;-82
2021/05/15 04:52:17;;;;;;;29.03;14.70;;;9.10;98.30;;;;;;5150318;23;20420;-83
2021/05/15 04:54:19;;;;;;;23.60;15.83;;;9.10;98.30;;;;;;5140724;23;20413;-82
2021/05/15 04:56:21;;;;;;;24.77;14.20;;;9.10;98.30;;;;;;5149649;23;20484;-82
2021/05/15 04:58:22;;;;;;;23.03;15.07;;;9.10;98.30;;;;;;5142605;23;20409;-82
2021/05/15 05:00:24;;;;;;;25.50;14.30;;;9.20;98.30;;;;;;5142089;23;20474;-82
2021/05/15 05:02:25;;;;;;;24.50;14.50;;;9.20;98.30;;;;;;5141200;23;20425;-82
2021/05/15 05:04:26;;;;;;;23.37;14.13;;;9.20;98.30;;;;;;5140745;23;20445;-82
2021/05/15 05:06:27;;;;;;;23.90;13.60;;;9.30;98.30;;;;;;5150679;23;20416;-81
2021/05/15 05:08:29;;;;;;;23.00;13.83;;;9.30;98.30;;;;;;5141333;23;20417;-82
2021/05/15 05:10:31;;;;;;;24.63;13.70;;;9.30;98.30;;;;;;5150787;23;20416;-83
2021/05/15 05:12:32;;;;;;;25.30;14.43;;;9.40;98.30;;;;;;5144487;23;20441;-82
2021/05/15 05:14:33;;;;;;;26.60;14.57;;;9.30;98.30;;;;;;5141853;23;20467;-82
2021/05/15 05:16:35;;;;;;;23.20;13.90;;;9.30;98.30;;;;;;5142662;23;20423;-82
2021/05/15 05:18:36;;;;;;;24.30;14.60;;;9.40;98.30;;;;;;5149515;23;20932;-81
2021/05/15 05:20:37;;;;;;;21.83;13.17;;;9.40;98.30;;;;;;5149234;23;20401;-82
2021/05/15 05:22:38;;;;;;;20.53;12.20;;;9.40;98.30;;;;;;5141239;23;20433;-82
2021/05/15 05:24:40;;;;;;;19.80;11.10;;;9.20;98.30;;;;;;5140350;23;20471;-81
2021/05/15 05:26:43;;;;;;;22.03;12.83;;;9.10;98.30;;;;;;5141066;23;20890;-82
2021/05/15 05:28:49;;;;;;;22.93;14.90;;;9.00;98.30;;;;;;5141455;23;20416;-82
2021/05/15 05:30:51;;;;;;;25.20;13.77;;;9.00;98.30;;;;;;5142536;23;20398;-83
2021/05/15 05:32:53;;;;;;;23.33;12.63;;;8.90;98.30;;;;;;5142502;23;20433;-83
2021/05/15 05:34:54;;;;;;;21.90;12.80;;;8.90;98.30;;;;;;5141597;23;20525;-83
2021/05/15 05:36:55;;;;;;;20.90;12.80;;;9.00;98.30;;;;;;5142505;23;20468;-83
2021/05/15 05:38:57;;;;;;;26.30;13.67;;;9.00;98.30;;;;;;5150042;23;20395;-83
2021/05/15 05:41:00;;;;;;;21.33;13.47;;;9.00;98.30;;;;;;5142657;23;20494;-83
2021/05/15 05:43:03;;;;;;;24.83;12.97;;;9.10;98.30;;;;;;5142502;23;21013;-83
2021/05/15 05:45:05;;;;;;;22.30;13.20;;;9.20;98.30;;;;;;5141496;23;20419;-83
2021/05/15 05:47:06;;;;;;;23.10;13.80;;;9.20;98.30;;;;;;5150095;23;20379;-83
2021/05/15 05:49:07;;;;;;;19.30;12.83;;;9.20;98.30;;;;;;5142363;23;20406;-83
2021/05/15 05:51:09;;;;;;;21.27;12.70;;;9.20;98.30;;;;;;5142515;23;20449;-83
2021/05/15 05:53:10;;;;;;;21.77;12.97;;;9.20;98.30;;;;;;5142298;23;20934;-82
2021/05/15 05:55:12;;;;;;;22.20;13.40;;;9.20;98.30;;;;;;5141002;23;20420;-83
2021/05/15 05:57:13;;;;;;;18.17;12.57;;;9.20;98.30;;;;;;5142972;23;20461;-83
2021/05/15 05:59:15;;;;;;;22.50;12.57;;;9.30;98.30;;;;;;5150635;23;20443;-83
2021/05/15 06:01:17;;;;;;;19.20;12.60;;;9.30;98.30;;;;;;5142150;23;20404;-83
2021/05/15 06:03:18;;;;;;;23.40;13.03;;;9.30;98.30;;;;;;5141873;23;20905;-83
2021/05/15 06:05:20;;;;;;;19.27;12.57;;;9.20;98.30;;;;;;5140170;23;20436;-82
2021/05/15 06:07:21;;;;;;;21.30;11.30;;;9.20;98.30;;;;;;5149080;23;20412;-83
2021/05/15 06:09:22;;;;;;;25.57;12.03;;;9.30;98.30;;;;;;5141454;23;20530;-83
2021/05/15 06:11:24;;;;;;;21.20;12.27;;;9.30;98.30;;;;;;5140935;23;20842;-83
2021/05/15 06:13:25;;;;;;;19.87;12.33;;;9.20;98.30;;;;;;5141842;23;20482;-83
2021/05/15 06:15:28;;;;;;;22.90;13.63;;;9.30;98.30;;;;;;5140501;23;20520;-83
2021/05/15 06:17:29;;;;;;;21.17;12.07;;;9.30;98.30;;;;;;5150119;23;20413;-82
2021/05/15 06:19:32;;;;;;;27.17;11.67;;;9.40;98.30;;;;;;5141128;23;20412;-83
2021/05/15 06:21:33;;;;;;;16.93;10.37;;;9.40;98.30;;;;;;5149811;23;20512;-83
2021/05/15 06:23:34;;;;;;;22.30;12.97;;;9.40;98.30;;;;;;5141338;23;20425;-83
2021/05/15 06:25:36;;;;;;;21.47;11.87;;;9.40;98.30;;;;;;5142319;23;20449;-83
2021/05/15 06:27:37;;;;;;;19.77;12.13;;;9.50;98.30;;;;;;5151244;23;20413;-83
2021/05/15 06:29:38;;;;;;;23.10;12.63;;;9.50;98.30;;;;;;5143135;23;20486;-82
2021/05/15 06:31:40;;;;;;;23.90;12.47;;;9.50;98.30;;;;;;5150962;23;20549;-83
2021/05/15 06:33:42;;;;;;;22.43;13.53;;;9.50;98.30;;;;;;5142861;23;20405;-83
2021/05/15 06:35:43;;;;;;;20.40;11.43;;;9.40;98.30;;;;;;5151272;23;20401;-83
2021/05/15 06:37:47;;;;;;;24.30;13.00;;;9.50;98.30;;;;;;5151749;23;20448;-83
2021/05/15 06:39:49;;;;;;;20.23;13.33;;;9.60;98.30;;;;;;5143627;23;20440;-83
2021/05/15 06:41:50;;;;;;;24.60;16.10;;;9.70;98.30;;;;;;5150649;23;20469;-83
2021/05/15 06:43:52;;;;;;;16.33;11.53;;;9.70;98.30;;;;;;5143168;23;20424;-82
2021/05/15 06:45:53;;;;;;;17.80;11.77;;;9.70;98.30;;;;;;5141775;23;20515;-83
2021/05/15 06:47:57;;;;;;;19.67;12.07;;;9.80;98.30;;;;;;5141642;23;20480;-83
2021/05/15 06:49:59;;;;;;;19.27;11.50;;;9.90;98.30;;;;;;5141788;23;20509;-83
2021/05/15 06:52:00;;;;;;;16.10;10.90;;;9.80;98.30;;;;;;5141383;23;20449;-81
2021/05/15 06:54:01;;;;;;;17.50;10.90;;;9.80;98.30;;;;;;5140084;23;20954;-82
2021/05/15 06:56:03;;;;;;;21.20;11.70;;;9.70;98.30;;;;;;5141005;23;20443;-82
2021/05/15 06:58:05;;;;;;;24.40;12.83;;;9.70;98.30;;;;;;5141366;23;20416;-82
2021/05/15 07:00:07;;;;;;;20.70;12.80;;;9.50;98.30;;;;;;5141909;23;20420;-82
2021/05/15 07:02:09;;;;;;;22.10;12.07;;;9.50;98.30;;;;;;5140730;23;20411;-81
2021/05/15 07:04:11;;;;;;;20.40;11.77;;;9.50;98.30;;;;;;5140681;23;20412;-82
2021/05/15 07:06:12;;;;;;;19.40;11.60;;;9.60;98.30;;;;;;5141841;23;20919;-81
2021/05/15 07:08:14;;;;;;;20.60;12.23;;;9.60;98.30;;;;;;5145540;23;20409;-81
2021/05/15 07:10:15;;;;;;;21.20;11.70;;;9.60;98.30;;;;;;5151609;23;20898;-81
2021/05/15 07:12:17;;;;;;;19.63;11.30;;;9.60;98.30;;;;;;5143531;23;20413;-80
2021/05/15 07:14:18;;;;;;;18.10;12.27;;;9.60;98.30;;;;;;5151334;23;20878;-81
2021/05/15 07:16:19;;;;;;;21.37;12.23;;;9.60;98.30;;;;;;5143943;23;20420;-80
2021/05/15 07:18:21;;;;;;;19.40;11.63;;;9.70;98.30;;;;;;5143547;23;20414;-81
2021/05/15 07:20:23;;;;;;;22.30;12.27;;;9.70;98.30;;;;;;5151503;23;20413;-80
2021/05/15 07:22:25;;;;;;;16.73;10.70;;;9.80;98.30;;;;;;5156093;23;20464;-80
2021/05/15 07:24:26;;;;;;;18.03;12.50;;;9.80;98.30;;;;;;5160980;23;20471;-83
2021/05/15 07:26:28;;;;;;;20.43;12.30;;;9.80;98.30;;;;;;5152425;23;20416;-82
2021/05/15 07:28:30;;;;;;;15.63;11.67;;;9.80;98.30;;;;;;5152357;23;20413;-80
2021/05/15 07:30:31;;;;;;;16.67;11.63;;;9.70;98.30;;;;;;5158574;23;20413;-75
2021/05/15 07:32:33;;;;;;;20.83;11.93;;;9.80;98.30;;;;;;5148964;23;20447;-79
2021/05/15 07:34:34;;;;;;;20.47;11.33;;;9.90;98.30;;;;;;5147377;23;20423;-80
2021/05/15 07:36:37;;;;;;;19.20;12.20;;;10.00;98.30;;;;;;5145079;23;20432;-80
2021/05/15 07:38:40;;;;;;;17.40;11.23;;;10.00;98.30;;;;;;5143790;23;20413;-80
2021/05/15 07:40:41;;;;;;;18.67;11.03;;;10.10;98.30;;;;;;5143273;23;20419;-80
2021/05/15 07:42:42;;;;;;;20.80;12.07;;;10.00;98.30;;;;;;5140159;23;20555;-80
2021/05/15 07:44:44;;;;;;;46.90;24.60;;;10.00;98.30;;;;;;5136746;23;20437;-80
2021/05/15 07:46:45;;;;;;;19.13;12.50;;;10.20;98.30;;;;;;5137956;23;20417;-82
2021/05/15 07:48:47;;;;;;;20.63;12.90;;;10.30;98.30;;;;;;5140580;23;20730;-80
2021/05/15 07:50:48;;;;;;;20.13;12.13;;;10.40;98.30;;;;;;5143846;23;20409;-80
2021/05/15 07:52:50;;;;;;;17.80;11.80;;;10.40;98.30;;;;;;5143722;23;20794;-80
2021/05/15 07:54:52;;;;;;;18.60;12.63;;;10.30;98.30;;;;;;5143886;23;20787;-80
2021/05/15 07:56:54;;;;;;;21.67;12.83;;;10.30;98.30;;;;;;5144596;23;20422;-80
2021/05/15 07:58:55;;;;;;;17.63;11.30;;;10.20;98.30;;;;;;5144950;23;20918;-80
2021/05/15 08:00:57;;;;;;;16.80;11.50;;;10.20;98.30;;;;;;5144416;23;20710;-80
2021/05/15 08:02:58;;;;;;;18.10;11.17;;;10.20;98.30;;;;;;5144190;23;20440;-80
2021/05/15 08:04:59;;;;;;;18.70;10.97;;;10.20;98.30;;;;;;5143281;23;20463;-80
2021/05/15 08:07:00;;;;;;;16.60;12.13;;;10.20;98.30;;;;;;5144093;23;20413;-80
2021/05/15 08:09:04;;;;;;;16.00;11.67;;;10.30;98.30;;;;;;5143595;23;20417;-80
2021/05/15 08:11:05;;;;;;;22.67;14.90;;;10.40;98.30;;;;;;5153211;23;20420;-79
2021/05/15 08:13:08;;;;;;;22.60;14.27;;;10.50;98.30;;;;;;5144408;23;20487;-80
2021/05/15 08:15:10;;;;;;;20.37;14.27;;;10.70;98.30;;;;;;5143740;23;20417;-80
2021/05/15 08:17:11;;;;;;;22.73;12.87;;;11.00;98.30;;;;;;5144462;23;20405;-80
2021/05/15 08:19:13;;;;;;;20.83;13.23;;;11.20;98.30;;;;;;5144804;23;20419;-80
2021/05/15 08:21:14;;;;;;;19.00;12.30;;;11.40;98.30;;;;;;5144079;23;20433;-80
2021/05/15 08:23:16;;;;;;;18.00;11.80;;;11.50;98.30;;;;;;5144203;23;20409;-80
2021/05/15 08:25:19;;;;;;;19.20;12.70;;;11.50;98.30;;;;;;5144137;23;20775;-80
2021/05/15 08:27:21;;;;;;;16.80;11.70;;;11.60;98.30;;;;;;5144426;23;20779;-80
2021/05/15 08:29:23;;;;;;;15.40;11.17;;;11.60;98.30;;;;;;5144311;23;20416;-80
2021/05/15 08:31:25;;;;;;;15.97;11.20;;;11.40;98.30;;;;;;5144367;23;20437;-80
2021/05/15 08:33:26;;;;;;;19.10;12.40;;;11.30;98.30;;;;;;5145938;23;20412;-80
2021/05/15 08:35:27;;;;;;;19.20;12.30;;;11.00;98.30;;;;;;5144766;23;20488;-80
2021/05/15 08:37:29;;;;;;;23.17;14.17;;;10.90;98.30;;;;;;5146596;23;20777;-80
2021/05/15 08:39:30;;;;;;;17.50;11.07;;;10.90;98.30;;;;;;5146729;23;20827;-80
2021/05/15 08:41:33;;;;;;;19.60;13.80;;;10.90;98.30;;;;;;5145128;23;20443;-80
2021/05/15 08:43:39;;;;;;;18.93;11.83;;;10.80;98.30;;;;;;5145226;23;20971;-80
2021/05/15 08:45:41;;;;;;;47.40;26.13;;;10.80;98.30;;;;;;5145107;23;20807;-80
2021/05/15 08:47:44;;;;;;;21.00;13.10;;;10.80;98.30;;;;;;5145391;23;20413;-80
2021/05/15 08:49:46;;;;;;;22.20;12.47;;;10.90;98.30;;;;;;5145654;23;20427;-80
2021/05/15 08:51:49;;;;;;;20.67;13.50;;;11.00;98.30;;;;;;5144950;23;20444;-80
2021/05/15 08:53:51;;;;;;;20.23;13.60;;;11.10;98.30;;;;;;5153980;23;20497;-80
2021/05/15 08:55:53;;;;;;;20.90;12.97;;;11.30;98.30;;;;;;5144925;23;20488;-80
2021/05/15 08:57:55;;;;;;;21.43;12.33;;;11.30;98.30;;;;;;5146027;23;20955;-80
2021/05/15 08:59:56;;;;;;;19.03;13.43;;;11.20;98.30;;;;;;5145987;23;20413;-80
2021/05/15 09:01:58;;;;;;;16.47;11.23;;;11.20;98.30;;;;;;5144829;23;20447;-80
2021/05/15 09:04:21;;;;;;;20.40;12.00;;;11.10;98.30;;;;;;5144441;23;20425;-80
2021/05/15 09:06:25;;;;;;;21.33;12.83;;;11.10;98.30;;;;;;5153947;23;20423;-80
2021/05/15 09:08:28;;;;;;;17.87;11.43;;;11.30;98.30;;;;;;5145688;23;20443;-80
2021/05/15 09:10:33;;;;;;;21.07;13.50;;;11.40;98.30;;;;;;5145369;23;20439;-81
2021/05/15 09:12:35;;;;;;;18.27;12.77;;;11.30;98.30;;;;;;5146194;23;20536;-81
2021/05/15 09:14:38;;;;;;;18.90;12.00;;;11.40;98.30;;;;;;5144901;23;20520;-81
2021/05/15 09:16:48;;;;;;;19.03;13.00;;;11.40;98.30;;;;;;5145020;23;20436;-81
2021/05/15 09:18:51;;;;;;;20.67;12.33;;;11.70;98.30;;;;;;5145053;23;20439;-81
2021/05/15 09:20:56;;;;;;;21.87;12.70;;;12.00;98.30;;;;;;5154705;23;20428;-81
2021/05/15 09:22:58;;;;;;;16.50;12.10;;;12.20;98.30;;;;;;5152507;23;20913;-81
2021/05/15 09:25:04;;;;;;;17.77;13.20;;;12.20;98.30;;;;;;5153142;23;20457;-81
2021/05/15 09:27:08;;;;;;;16.60;11.90;;;12.20;98.30;;;;;;5145358;23;20417;-81
2021/05/15 09:29:11;;;;;;;19.10;13.00;;;12.20;98.30;;;;;;5154442;23;20425;-81
2021/05/15 09:31:21;;;;;;;20.90;15.07;;;12.30;98.30;;;;;;5145158;23;21295;-81
2021/05/15 09:33:27;;;;;;;17.23;13.60;;;12.40;98.30;;;;;;5146008;23;20421;-81
2021/05/15 09:35:30;;;;;;;23.00;15.73;;;12.50;98.30;;;;;;5155061;23;20422;-81
2021/05/15 09:37:34;;;;;;;20.80;14.47;;;12.50;98.30;;;;;;5146709;23;20435;-81
2021/05/15 09:39:37;;;;;;;22.13;15.40;;;12.60;98.30;;;;;;5144818;23;20436;-81
2021/05/15 09:41:41;;;;;;;20.27;14.90;;;13.00;98.30;;;;;;5144950;23;20483;-81
2021/05/15 09:43:52;;;;;;;21.67;14.70;;;13.40;98.30;;;;;;5145960;23;20416;-81
2021/05/15 09:45:56;;;;;;;20.93;13.70;;;14.10;98.30;;;;;;5145155;23;20459;-81
2021/05/15 09:48:01;;;;;;;20.70;14.00;;;14.30;98.30;;;;;;5145777;23;20425;-82
2021/05/15 09:50:13;;;;;;;19.27;14.40;;;14.20;98.30;;;;;;5146206;23;20425;-81
2021/05/15 09:52:15;;;;;;;17.30;14.33;;;14.30;98.30;;;;;;5146702;22;20488;-86
2021/05/15 09:54:20;;;;;;;18.67;14.30;;;14.30;98.30;;;;;;5156100;23;20427;-86
2021/05/15 09:56:27;;;;;;;15.87;14.10;;;14.00;98.30;;;;;;5162432;23;20428;-86
2021/05/15 09:58:30;;;;;;;20.90;13.70;;;14.20;98.30;;;;;;5160081;23;20519;-87
2021/05/15 10:00:40;;;;;;;20.70;14.53;;;14.20;98.30;;;;;;5150150;23;20447;-86
2021/05/15 10:02:53;;;;;;;19.37;14.67;;;14.20;98.30;;;;;;5148336;23;20441;-86
2021/05/15 10:04:57;;;;;;;17.30;13.80;;;14.40;98.30;;;;;;5148506;23;20443;-87
2021/05/15 10:07:01;;;;;;;19.40;16.80;;;14.50;98.30;;;;;;5141768;23;20429;-86
2021/05/15 10:09:04;;;;;;;17.37;14.63;;;14.60;98.30;;;;;;5149796;23;20402;-86
2021/05/15 10:11:07;;;;;;;18.57;15.57;;;14.90;98.30;;;;;;5150360;23;21312;-86
2021/05/15 10:13:09;;;;;;;18.77;14.13;;;15.20;98.30;;;;;;5148161;23;20936;-86
2021/05/15 10:15:12;;;;;;;20.57;15.63;;;15.00;98.30;;;;;;5148795;23;20451;-86
2021/05/15 10:17:17;;;;;;;33.00;23.70;;;15.30;98.30;;;;;;5149998;23;20452;-86
2021/05/15 10:19:20;;;;;;;20.10;18.00;;;15.40;98.30;;;;;;5150087;23;20744;-86
2021/05/15 10:21:24;;;;;;;24.60;20.87;;;15.60;98.30;;;;;;5149864;23;20524;-86
2021/05/15 10:23:29;;;;;;;19.63;15.50;;;15.70;98.30;;;;;;5141298;23;20964;-87
2021/05/15 10:25:32;;;;;;;20.10;16.40;;;15.60;98.30;;;;;;5142448;23;20437;-86